createdAt,value
2022-11-06T00:02:20.693Z,3.00
2022-11-06T00:04:47.584Z,2.63
2022-11-06T00:07:14.041Z,2.90
2022-11-06T00:09:40.544Z,3.13
2022-11-06T00:12:07.197Z,2.90
2022-11-06T00:14:33.697Z,2.93
2022-11-06T00:17:00.172Z,3.17
2022-11-06T00:19:26.678Z,3.23
2022-11-06T00:21:53.201Z,3.00
2022-11-06T00:24:19.697Z,2.80
2022-11-06T00:26:51.322Z,2.87
2022-11-06T00:29:20.651Z,2.80
2022-11-06T00:31:49.544Z,2.93
2022-11-06T00:34:16.084Z,3.53
2022-11-06T00:36:42.611Z,2.80
2022-11-06T00:39:09.248Z,2.80
2022-11-06T00:41:35.793Z,2.97
2022-11-06T00:44:02.870Z,2.70
2022-11-06T00:46:29.381Z,3.00
2022-11-06T00:48:56.082Z,2.50
2022-11-06T00:51:27.847Z,2.70
2022-11-06T00:53:58.946Z,3.70
2022-11-06T00:56:25.549Z,3.03
2022-11-06T00:58:52.160Z,2.70
2022-11-06T01:01:24.392Z,2.90
2022-11-06T01:04:06.959Z,2.83
2022-11-06T01:06:35.370Z,3.00
2022-11-06T01:09:02.044Z,2.90
2022-11-06T01:11:59.440Z,3.20
2022-11-06T01:14:23.169Z,2.70
2022-11-06T01:16:49.849Z,3.57
2022-11-06T01:19:17.445Z,2.87
2022-11-06T01:21:46.158Z,3.80
2022-11-06T01:24:15.470Z,2.90
2022-11-06T01:26:58.511Z,3.37
2022-11-06T01:29:28.525Z,2.60
2022-11-06T01:31:55.041Z,2.60
2022-11-06T01:34:21.641Z,2.83
2022-11-06T01:37:00.197Z,2.67
2022-11-06T01:39:26.682Z,2.57
2022-11-06T01:41:53.517Z,2.60
2022-11-06T01:44:41.766Z,2.80
2022-11-06T01:47:26.022Z,2.70
2022-11-06T01:50:00.357Z,3.00
2022-11-06T01:52:27.377Z,2.63
2022-11-06T01:54:57.277Z,2.70
2022-11-06T01:57:23.759Z,2.70
2022-11-06T01:59:50.734Z,2.77
2022-11-06T02:02:17.397Z,2.77
2022-11-06T02:04:45.220Z,2.57
2022-11-06T02:07:12.123Z,2.80
2022-11-06T02:09:38.679Z,2.60
2022-11-06T02:12:05.093Z,2.63
2022-11-06T02:14:45.561Z,2.57
2022-11-06T02:17:27.319Z,2.63
2022-11-06T02:20:29.353Z,2.73
2022-11-06T02:23:10.719Z,2.60
2022-11-06T02:25:57.379Z,2.70
2022-11-06T02:28:26.504Z,2.90
2022-11-06T02:30:53.159Z,2.70
2022-11-06T02:33:25.343Z,2.77
2022-11-06T02:36:06.510Z,2.90
2022-11-06T02:38:43.917Z,2.80
2022-11-06T02:41:16.371Z,3.10
2022-11-06T02:43:44.526Z,2.70
2022-11-06T02:46:26.216Z,3.03
2022-11-06T02:48:56.268Z,3.07
2022-11-06T02:51:24.224Z,2.70
2022-11-06T02:53:50.704Z,2.80
2022-11-06T02:56:28.281Z,2.90
2022-11-06T02:59:03.217Z,2.97
2022-11-06T03:01:34.503Z,2.77
2022-11-06T03:04:05.659Z,3.47
2022-11-06T03:06:38.851Z,2.80
2022-11-06T03:09:08.024Z,2.90
2022-11-06T03:11:43.846Z,2.70
2022-11-06T03:14:17.083Z,2.50
2022-11-06T03:17:10.950Z,2.90
2022-11-06T03:19:45.703Z,2.87
2022-11-06T03:22:13.317Z,3.60
2022-11-06T03:25:05.010Z,2.70
2022-11-06T03:28:01.646Z,2.80
2022-11-06T03:30:28.109Z,3.10
2022-11-06T03:32:58.803Z,2.80
2022-11-06T03:35:35.331Z,2.87
2022-11-06T03:38:05.654Z,2.90
2022-11-06T03:40:32.766Z,4.00
2022-11-06T03:43:02.171Z,2.87
2022-11-06T03:45:28.724Z,2.70
2022-11-06T03:47:58.733Z,3.20
2022-11-06T03:50:37.546Z,3.17
2022-11-06T03:53:10.246Z,3.30
2022-11-06T03:55:40.817Z,2.83
2022-11-06T03:58:09.749Z,3.00
2022-11-06T04:00:36.781Z,3.33
2022-11-06T04:03:06.428Z,2.97
2022-11-06T04:05:36.294Z,2.90
2022-11-06T04:08:21.542Z,3.10
2022-11-06T04:11:09.137Z,2.93
2022-11-06T04:13:54.107Z,3.00
2022-11-06T04:16:20.653Z,3.17
2022-11-06T04:18:47.117Z,2.83
2022-11-06T04:21:40.663Z,3.07
2022-11-06T04:24:28.924Z,2.90
2022-11-06T04:27:08.810Z,3.20
2022-11-06T04:30:08.358Z,2.87
2022-11-06T04:32:41.083Z,3.13
2022-11-06T04:35:15.512Z,3.43
2022-11-06T04:38:09.374Z,2.80
2022-11-06T04:41:18.507Z,3.10
2022-11-06T04:44:09.386Z,2.90
2022-11-06T04:46:52.342Z,2.93
2022-11-06T04:49:18.862Z,3.40
2022-11-06T04:51:46.471Z,3.20
2022-11-06T04:54:13.022Z,2.67
2022-11-06T04:56:45.556Z,3.57
2022-11-06T04:59:14.779Z,3.60
2022-11-06T05:01:41.379Z,3.50
2022-11-06T05:04:08.593Z,3.33
2022-11-06T05:06:35.078Z,3.07
2022-11-06T05:09:01.619Z,2.80
2022-11-06T05:11:28.132Z,3.00
2022-11-06T05:13:54.719Z,2.77
2022-11-06T05:16:21.281Z,2.80
2022-11-06T05:18:47.751Z,2.70
2022-11-06T05:21:32.790Z,3.03
2022-11-06T05:23:59.290Z,2.93
2022-11-06T05:26:25.753Z,2.90
2022-11-06T05:28:52.237Z,3.13
2022-11-06T05:31:18.709Z,3.10
2022-11-06T05:33:45.218Z,2.93
2022-11-06T05:36:11.755Z,3.07
2022-11-06T05:38:38.258Z,3.00
2022-11-06T05:41:04.867Z,3.03
2022-11-06T05:43:31.333Z,3.10
2022-11-06T05:45:58.370Z,3.00
2022-11-06T05:48:24.851Z,3.40
2022-11-06T05:50:51.396Z,2.80
2022-11-06T05:53:18.035Z,3.10
2022-11-06T05:55:47.597Z,2.60
2022-11-06T05:58:14.823Z,2.93
2022-11-06T06:00:41.660Z,3.10
2022-11-06T06:03:09.009Z,2.90
2022-11-06T06:05:35.579Z,3.30
2022-11-06T06:08:02.097Z,3.03
2022-11-06T06:10:28.590Z,3.27
2022-11-06T06:12:55.058Z,3.00
2022-11-06T06:15:21.537Z,2.57
2022-11-06T06:17:48.042Z,2.80
2022-11-06T06:20:14.598Z,2.63
2022-11-06T06:22:41.146Z,2.50
2022-11-06T06:25:17.446Z,2.57
2022-11-06T06:27:48.839Z,2.63
2022-11-06T06:30:15.700Z,3.00
2022-11-06T06:32:42.220Z,2.80
2022-11-06T06:35:08.907Z,2.67
2022-11-06T06:37:35.398Z,2.90
2022-11-06T06:40:01.933Z,3.00
2022-11-06T06:42:31.435Z,2.90
2022-11-06T06:44:58.179Z,2.60
2022-11-06T06:47:24.665Z,2.70
2022-11-06T06:49:51.134Z,2.90
2022-11-06T06:52:17.646Z,2.70
2022-11-06T06:54:44.150Z,2.80
2022-11-06T06:57:10.677Z,2.60
2022-11-06T06:59:37.139Z,2.90
2022-11-06T07:02:03.670Z,2.60
2022-11-06T07:04:30.279Z,3.30
2022-11-06T07:06:56.792Z,3.03
2022-11-06T07:09:26.008Z,2.80
2022-11-06T07:11:52.550Z,3.00
2022-11-06T07:14:19.098Z,3.10
2022-11-06T07:16:48.561Z,3.07
2022-11-06T07:19:19.136Z,2.73
2022-11-06T07:21:45.600Z,3.00
2022-11-06T07:24:12.179Z,2.73
2022-11-06T07:26:38.717Z,2.50
2022-11-06T07:29:05.256Z,2.83
2022-11-06T07:31:31.732Z,2.60
2022-11-06T07:33:58.204Z,2.70
2022-11-06T07:36:24.684Z,2.27
2022-11-06T07:38:51.235Z,2.47
2022-11-06T07:41:17.720Z,2.67
2022-11-06T07:43:44.337Z,3.13
2022-11-06T07:46:11.965Z,2.53
2022-11-06T07:48:39.508Z,2.60
2022-11-06T07:51:07.340Z,2.70
2022-11-06T07:53:33.832Z,2.80
2022-11-06T07:56:00.433Z,2.57
2022-11-06T07:58:26.958Z,2.73
2022-11-06T08:00:55.036Z,2.53
2022-11-06T08:03:21.713Z,2.60
2022-11-06T08:05:48.201Z,2.57
2022-11-06T08:08:15.139Z,2.50
2022-11-06T08:10:43.654Z,2.40
2022-11-06T08:13:10.898Z,2.60
2022-11-06T08:15:38.349Z,2.83
2022-11-06T08:18:05.757Z,2.73
2022-11-06T08:20:32.213Z,2.50
2022-11-06T08:23:00.165Z,2.20
2022-11-06T08:25:27.187Z,2.50
2022-11-06T08:28:00.808Z,2.60
2022-11-06T08:30:28.010Z,2.37
2022-11-06T08:32:54.694Z,2.50
2022-11-06T08:35:21.548Z,2.30
2022-11-06T08:37:48.055Z,2.27
2022-11-06T08:40:14.594Z,2.40
2022-11-06T08:42:41.154Z,2.20
2022-11-06T08:45:08.292Z,2.80
2022-11-06T08:47:34.819Z,2.57
2022-11-06T08:50:01.328Z,2.40
2022-11-06T08:52:33.735Z,2.23
2022-11-06T08:55:00.641Z,2.40
2022-11-06T08:57:27.388Z,2.63
2022-11-06T08:59:53.877Z,3.17
2022-11-06T09:02:20.431Z,2.23
2022-11-06T09:04:47.016Z,2.50
2022-11-06T09:07:13.591Z,2.50
2022-11-06T09:09:40.052Z,2.30
2022-11-06T09:12:06.926Z,3.30
2022-11-06T09:14:34.106Z,2.40
2022-11-06T09:17:00.604Z,2.00
2022-11-06T09:19:27.109Z,3.57
2022-11-06T09:21:54.881Z,2.07
2022-11-06T09:24:43.165Z,2.50
2022-11-06T09:27:08.318Z,2.23
2022-11-06T09:29:34.809Z,2.30
2022-11-06T09:32:01.294Z,2.37
2022-11-06T09:34:27.776Z,2.50
2022-11-06T09:36:54.257Z,2.10
2022-11-06T09:39:20.730Z,2.40
2022-11-06T09:41:58.774Z,2.33
2022-11-06T09:44:31.491Z,3.50
2022-11-06T09:46:58.001Z,2.80
2022-11-06T09:49:52.917Z,1.97
2022-11-06T09:52:48.519Z,2.30
2022-11-06T09:55:17.647Z,5.87
2022-11-06T09:57:53.114Z,2.30
2022-11-06T10:00:19.701Z,2.00
2022-11-06T10:02:53.023Z,4.30
2022-11-06T10:05:32.572Z,6.17
2022-11-06T10:08:20.060Z,9.10
2022-11-06T10:11:15.739Z,9.53
2022-11-06T10:14:11.522Z,8.33
2022-11-06T10:16:50.171Z,8.50
2022-11-06T10:19:36.672Z,9.53
2022-11-06T10:22:11.950Z,9.47
2022-11-06T10:24:57.130Z,7.67
2022-11-06T10:27:27.531Z,7.03
2022-11-06T10:30:08.559Z,8.33
2022-11-06T10:32:59.988Z,7.07
2022-11-06T10:35:57.901Z,6.77
2022-11-06T10:38:29.441Z,6.67
2022-11-06T10:40:56.126Z,7.33
2022-11-06T10:43:52.406Z,7.07
2022-11-06T10:46:33.997Z,7.43
2022-11-06T10:49:25.989Z,9.20
2022-11-06T10:52:07.782Z,6.27
2022-11-06T10:54:53.373Z,6.30
2022-11-06T10:57:54.186Z,7.70
2022-11-06T11:00:20.758Z,6.03
2022-11-06T11:02:56.083Z,6.13
2022-11-06T11:05:23.759Z,7.00
2022-11-06T11:07:50.529Z,6.63
2022-11-06T11:10:23.101Z,5.80
2022-11-06T11:12:50.443Z,5.27
2022-11-06T11:15:21.052Z,5.10
2022-11-06T11:18:07.355Z,6.10
2022-11-06T11:20:35.125Z,5.20
2022-11-06T11:23:28.338Z,5.57
2022-11-06T11:25:56.446Z,5.10
2022-11-06T11:28:22.890Z,5.30
2022-11-06T11:31:08.805Z,4.57
2022-11-06T11:33:35.321Z,4.80
2022-11-06T11:36:02.910Z,7.73
2022-11-06T11:38:29.476Z,4.93
2022-11-06T11:41:09.354Z,4.50
2022-11-06T11:43:35.869Z,4.80
2022-11-06T11:46:08.951Z,4.13
2022-11-06T11:48:43.867Z,3.93
2022-11-06T11:51:24.579Z,5.80
2022-11-06T11:53:51.802Z,3.70
2022-11-06T11:56:31.193Z,3.83
2022-11-06T11:59:06.323Z,4.20
2022-11-06T12:01:38.144Z,4.07
2022-11-06T12:04:26.831Z,3.90
2022-11-06T12:07:03.978Z,4.10
2022-11-06T12:09:33.331Z,4.33
2022-11-06T12:12:00.669Z,3.90
2022-11-06T12:14:31.309Z,4.27
2022-11-06T12:17:16.864Z,4.10
2022-11-06T12:19:46.889Z,4.30
2022-11-06T12:22:17.431Z,6.70
2022-11-06T12:25:10.953Z,6.73
2022-11-06T12:27:38.575Z,5.23
2022-11-06T12:30:07.405Z,8.10
2022-11-06T12:32:58.887Z,6.80
2022-11-06T12:35:29.233Z,7.13
2022-11-06T12:38:11.114Z,6.93
2022-11-06T12:41:03.582Z,8.60
2022-11-06T12:43:59.992Z,6.47
2022-11-06T12:46:51.058Z,6.43
2022-11-06T12:49:57.225Z,5.37
2022-11-06T12:52:47.214Z,28.73
2022-11-06T12:55:22.924Z,34.93
2022-11-06T12:57:52.422Z,41.97
2022-11-06T13:00:20.407Z,28.17
2022-11-06T13:03:00.281Z,27.87
2022-11-06T13:05:33.676Z,27.50
2022-11-06T13:08:19.050Z,26.73
2022-11-06T13:10:51.296Z,28.73
2022-11-06T13:13:35.928Z,29.40
2022-11-06T13:16:11.550Z,27.47
2022-11-06T13:18:42.983Z,25.07
2022-11-06T13:21:20.449Z,24.13
2022-11-06T13:23:51.352Z,23.60
2022-11-06T13:26:32.581Z,27.67
2022-11-06T13:29:00.462Z,24.73
2022-11-06T13:31:39.278Z,23.93
2022-11-06T13:34:05.831Z,28.73
2022-11-06T13:36:32.377Z,22.97
2022-11-06T13:39:12.809Z,23.97
2022-11-06T13:41:39.378Z,26.10
2022-11-06T13:44:15.890Z,24.27
2022-11-06T13:46:56.420Z,25.07
2022-11-06T13:49:31.691Z,18.67
2022-11-06T13:51:59.946Z,19.30
2022-11-06T13:55:08.418Z,16.40
2022-11-06T13:57:37.826Z,16.93
2022-11-06T14:00:16.454Z,15.50
2022-11-06T14:03:20.148Z,16.03
2022-11-06T14:06:05.910Z,13.80
2022-11-06T14:08:39.428Z,16.13
2022-11-06T14:11:07.530Z,19.17
2022-11-06T14:13:34.819Z,18.87
2022-11-06T14:16:04.170Z,17.10
2022-11-06T14:18:30.686Z,19.17
2022-11-06T14:21:34.933Z,15.83
2022-11-06T14:24:28.296Z,15.47
2022-11-06T14:26:54.814Z,14.60
2022-11-06T14:29:27.511Z,17.53
2022-11-06T14:32:10.360Z,13.13
2022-11-06T14:34:37.995Z,14.73
2022-11-06T14:37:19.673Z,17.53
2022-11-06T14:39:52.501Z,12.20
2022-11-06T14:42:28.101Z,11.83
2022-11-06T14:45:08.343Z,13.07
2022-11-06T14:47:35.833Z,12.03
2022-11-06T14:50:24.870Z,11.80
2022-11-06T14:52:58.706Z,16.43
2022-11-06T14:55:45.806Z,12.50
2022-11-06T14:58:25.649Z,11.73
2022-11-06T15:00:56.670Z,15.93
2022-11-06T15:03:44.336Z,12.60
2022-11-06T15:06:16.831Z,12.63
2022-11-06T15:08:46.282Z,12.20
2022-11-06T15:11:31.991Z,13.17
2022-11-06T15:14:06.162Z,14.00
2022-11-06T15:16:40.825Z,10.97
2022-11-06T15:19:11.387Z,10.07
2022-11-06T15:22:15.025Z,9.43
2022-11-06T15:24:48.154Z,8.50
2022-11-06T15:27:22.343Z,10.77
2022-11-06T15:29:52.656Z,10.03
2022-11-06T15:32:22.223Z,10.87
2022-11-06T15:34:54.150Z,9.93
2022-11-06T15:37:26.161Z,8.77
2022-11-06T15:39:59.127Z,11.23
2022-11-06T15:42:34.676Z,9.80
2022-11-06T15:45:16.636Z,9.07
2022-11-06T15:48:02.297Z,8.60
2022-11-06T15:50:32.508Z,9.17
2022-11-06T15:53:14.678Z,8.87
2022-11-06T15:56:07.170Z,7.83
2022-11-06T15:58:35.197Z,8.53
2022-11-06T16:01:02.369Z,8.20
2022-11-06T16:03:31.260Z,8.10
2022-11-06T16:06:00.476Z,11.07
2022-11-06T16:08:28.193Z,8.23
2022-11-06T16:10:54.756Z,8.33
2022-11-06T16:13:22.447Z,8.10
2022-11-06T16:16:01.572Z,8.40
2022-11-06T16:18:35.940Z,8.63
2022-11-06T16:21:16.473Z,7.30
2022-11-06T16:23:56.034Z,7.57
2022-11-06T16:26:36.298Z,7.50
2022-11-06T16:29:29.461Z,5.83
2022-11-06T16:32:06.702Z,6.73
2022-11-06T16:34:37.524Z,6.10
2022-11-06T16:37:05.901Z,6.20
2022-11-06T16:39:53.903Z,7.03
2022-11-06T16:42:30.874Z,7.07
2022-11-06T16:45:20.257Z,7.97
2022-11-06T16:48:09.984Z,8.17
2022-11-06T16:50:50.319Z,6.97
2022-11-06T16:53:20.554Z,8.83
2022-11-06T16:55:56.974Z,7.53
2022-11-06T16:58:23.547Z,5.83
2022-11-06T17:01:05.817Z,6.23
2022-11-06T17:03:38.735Z,6.60
2022-11-06T17:06:05.417Z,9.27
2022-11-06T17:08:36.138Z,6.50
2022-11-06T17:11:20.567Z,7.17
2022-11-06T17:13:48.456Z,8.17
2022-11-06T17:16:16.961Z,7.30
2022-11-06T17:18:43.456Z,6.23
2022-11-06T17:21:23.147Z,6.17
2022-11-06T17:23:50.216Z,7.57
2022-11-06T17:26:29.585Z,7.37
2022-11-06T17:28:56.662Z,5.77
2022-11-06T17:31:23.917Z,7.13
2022-11-06T17:33:50.700Z,5.47
2022-11-06T17:36:26.528Z,7.97
2022-11-06T17:38:54.057Z,6.83
2022-11-06T17:41:32.697Z,4.77
2022-11-06T17:44:03.622Z,5.70
2022-11-06T17:46:37.603Z,5.73
2022-11-06T17:49:04.494Z,5.30
2022-11-06T17:51:49.754Z,5.20
2022-11-06T17:54:17.153Z,7.20
2022-11-06T17:56:44.802Z,4.47
2022-11-06T17:59:11.649Z,6.13
2022-11-06T18:01:38.274Z,5.73
2022-11-06T18:04:05.258Z,5.20
2022-11-06T18:06:31.796Z,5.20
2022-11-06T18:08:59.110Z,6.10
2022-11-06T18:11:25.883Z,6.40
2022-11-06T18:13:52.634Z,5.93
2022-11-06T18:16:20.951Z,4.63
2022-11-06T18:18:47.576Z,4.77
2022-11-06T18:21:14.122Z,4.67
2022-11-06T18:23:40.610Z,4.67
2022-11-06T18:26:07.931Z,5.13
2022-11-06T18:28:34.494Z,5.00
2022-11-06T18:31:01.072Z,5.27
2022-11-06T18:33:30.349Z,6.07
2022-11-06T18:36:01.193Z,5.07
2022-11-06T18:38:27.871Z,4.37
2022-11-06T18:40:54.363Z,5.63
2022-11-06T18:43:20.852Z,4.60
2022-11-06T18:45:47.349Z,5.50
2022-11-06T18:48:18.331Z,4.73
2022-11-06T18:50:47.350Z,4.43
2022-11-06T18:53:15.179Z,5.60
2022-11-06T18:55:45.682Z,5.73
2022-11-06T18:58:12.629Z,4.63
2022-11-06T19:00:39.560Z,4.67
2022-11-06T19:03:06.183Z,4.47
2022-11-06T19:05:34.297Z,4.60
2022-11-06T19:08:01.634Z,4.27
2022-11-06T19:10:29.470Z,5.00
2022-11-06T19:12:59.240Z,4.23
2022-11-06T19:15:26.346Z,4.40
2022-11-06T19:17:54.520Z,5.33
2022-11-06T19:20:21.794Z,4.33
2022-11-06T19:22:52.075Z,5.13
2022-11-06T19:25:18.980Z,4.57
2022-11-06T19:27:45.843Z,4.37
2022-11-06T19:30:12.682Z,4.60
2022-11-06T19:32:39.196Z,4.53
2022-11-06T19:35:05.900Z,4.87
2022-11-06T19:37:32.522Z,4.40
2022-11-06T19:40:04.381Z,4.47
2022-11-06T19:42:32.327Z,4.10
2022-11-06T19:44:58.885Z,4.37
2022-11-06T19:47:25.779Z,4.37
2022-11-06T19:49:52.360Z,4.57
2022-11-06T19:52:42.261Z,4.33
2022-11-06T19:55:25.732Z,3.60
2022-11-06T19:57:53.410Z,3.67
2022-11-06T20:00:19.927Z,4.20
2022-11-06T20:02:49.443Z,4.30
2022-11-06T20:05:16.091Z,4.30
2022-11-06T20:07:42.655Z,4.30
2022-11-06T20:10:09.261Z,4.50
2022-11-06T20:12:35.798Z,4.40
2022-11-06T20:15:02.269Z,4.57
2022-11-06T20:17:28.830Z,4.40
2022-11-06T20:19:55.307Z,4.17
2022-11-06T20:22:21.805Z,4.33
2022-11-06T20:24:48.334Z,4.27
2022-11-06T20:27:14.841Z,3.87
2022-11-06T20:29:41.317Z,3.87
2022-11-06T20:32:07.817Z,4.00
2022-11-06T20:34:34.386Z,4.37
2022-11-06T20:37:00.941Z,4.00
2022-11-06T20:39:28.265Z,3.93
2022-11-06T20:41:54.861Z,4.20
2022-11-06T20:44:21.368Z,4.27
2022-11-06T20:46:48.111Z,4.43
2022-11-06T20:49:14.842Z,4.13
2022-11-06T20:52:11.631Z,4.70
2022-11-06T20:54:27.916Z,4.10
2022-11-06T20:56:54.463Z,3.77
2022-11-06T20:59:21.073Z,5.60
2022-11-06T21:01:48.112Z,4.13
2022-11-06T21:04:14.734Z,4.10
2022-11-06T21:06:41.481Z,4.40
2022-11-06T21:09:08.139Z,3.97
2022-11-06T21:11:34.722Z,4.47
2022-11-06T21:14:01.210Z,3.77
2022-11-06T21:16:29.634Z,4.10
2022-11-06T21:18:56.219Z,4.10
2022-11-06T21:21:24.416Z,4.50
2022-11-06T21:23:51.045Z,4.40
2022-11-06T21:26:25.171Z,4.17
2022-11-06T21:28:51.976Z,4.03
2022-11-06T21:31:20.255Z,4.60
2022-11-06T21:33:48.484Z,5.77
2022-11-06T21:36:22.751Z,4.50
2022-11-06T21:38:49.422Z,4.10
2022-11-06T21:41:17.859Z,4.50
2022-11-06T21:43:44.483Z,4.40
2022-11-06T21:46:12.398Z,3.90
2022-11-06T21:48:46.290Z,4.03
2022-11-06T21:51:30.291Z,4.60
2022-11-06T21:54:15.372Z,4.40
2022-11-06T21:56:42.544Z,4.20
2022-11-06T21:59:11.134Z,4.30
2022-11-06T22:01:37.968Z,4.20
2022-11-06T22:04:04.957Z,4.13
2022-11-06T22:06:31.545Z,3.97
2022-11-06T22:09:00.015Z,4.20
2022-11-06T22:11:37.174Z,4.03
2022-11-06T22:14:08.366Z,4.20
2022-11-06T22:16:36.741Z,4.40
2022-11-06T22:19:03.840Z,4.43
2022-11-06T22:21:30.877Z,4.00
2022-11-06T22:23:57.453Z,4.57
2022-11-06T22:26:25.478Z,4.37
2022-11-06T22:28:56.105Z,4.30
2022-11-06T22:31:22.897Z,4.50
2022-11-06T22:33:53.729Z,4.47
2022-11-06T22:36:20.718Z,4.50
2022-11-06T22:38:47.376Z,4.83
2022-11-06T22:41:18.011Z,4.60
2022-11-06T22:43:44.756Z,4.90
2022-11-06T22:46:16.467Z,4.40
2022-11-06T22:48:43.368Z,4.20
2022-11-06T22:51:11.760Z,4.53
2022-11-06T22:53:38.261Z,4.10
2022-11-06T22:56:05.323Z,4.53
2022-11-06T22:58:31.922Z,4.03
2022-11-06T23:00:58.559Z,4.80
2022-11-06T23:03:25.835Z,4.03
2022-11-06T23:05:52.360Z,4.30
2022-11-06T23:08:18.935Z,4.30
2022-11-06T23:10:45.575Z,4.17
2022-11-06T23:13:12.340Z,4.37
2022-11-06T23:15:39.105Z,4.20
2022-11-06T23:18:05.895Z,4.37
2022-11-06T23:20:33.246Z,3.90
2022-11-06T23:23:03.323Z,4.37
2022-11-06T23:25:29.875Z,3.93
2022-11-06T23:27:56.528Z,4.57
2022-11-06T23:30:23.058Z,4.30
2022-11-06T23:32:49.552Z,4.20
2022-11-06T23:35:17.134Z,4.20
2022-11-06T23:37:43.978Z,4.20
2022-11-06T23:40:11.075Z,4.40
2022-11-06T23:42:37.608Z,4.00
2022-11-06T23:45:23.099Z,4.07
2022-11-06T23:47:50.027Z,3.97
2022-11-06T23:50:16.735Z,4.10
2022-11-06T23:52:43.717Z,4.17
2022-11-06T23:55:10.374Z,3.97
2022-11-06T23:57:36.919Z,4.33
